Ed Carlson Memorial Field South Lewis County Airport


Codes: KTDO/TDO
Name: Ed Carlson Memorial Field South Lewis County Airport
City: Toledo
Country: United States
Elevation: 374 ft.
Wikipedia:

Photos at Ed Carlson Memorial Field South Lewis County Airport


   Photos courtesy of SpottingLog. You can add your own sightings and photos by signing up for a free trial today.



No photos found.

Weather at Ed Carlson Memorial Field South Lewis County Airport


Time (UTC)DescriptionTempratureWindCloud coverageVisibilityPressureHumidity
17-Jun-2024 06:00Light Rain10°C2 mph, NW70%10000m1016hPa87%
17-Jun-2024 09:00Overcast Clouds8°C2 mph, S87%10000m1016hPa93%
17-Jun-2024 12:00Overcast Clouds7°C2 mph, S98%10000m1018hPa97%
17-Jun-2024 15:00Overcast Clouds9°C2 mph, SE100%10000m1018hPa95%
17-Jun-2024 18:00Overcast Clouds12°C4 mph, S100%10000m1018hPa73%
17-Jun-2024 21:00Light Rain13°C2 mph, S99%10000m1018hPa85%
18-Jun-2024 00:00Light Rain15°C2 mph, S97%10000m1018hPa76%
18-Jun-2024 03:00Light Rain13°C4 mph, NW97%10000m1018hPa69%
18-Jun-2024 06:00Broken Clouds8°C0 mph, E75%10000m1019hPa94%
18-Jun-2024 09:00Few Clouds6°C2 mph, SE21%10000m1019hPa97%
18-Jun-2024 12:00Scattered Clouds5°C0 mph, SE38%10000m1018hPa98%
18-Jun-2024 15:00Broken Clouds10°C0 mph, SE52%10000m1018hPa81%
18-Jun-2024 18:00Broken Clouds16°C4 mph, N55%10000m1017hPa55%
18-Jun-2024 21:00Clear Sky20°C4 mph, N9%10000m1015hPa39%
19-Jun-2024 00:00Clear Sky22°C4 mph, NW5%10000m1013hPa35%
19-Jun-2024 03:00Clear Sky18°C4 mph, NW0%10000m1013hPa60%
19-Jun-2024 06:00Clear Sky9°C2 mph, NW0%10000m1015hPa93%
19-Jun-2024 09:00Clear Sky7°C0 mph, N0%10000m1016hPa98%
19-Jun-2024 12:00Clear Sky6°C2 mph, NW8%10000m1015hPa99%
19-Jun-2024 15:00Scattered Clouds11°C2 mph, NW31%10000m1015hPa77%
19-Jun-2024 18:00Scattered Clouds21°C4 mph, NW50%10000m1014hPa46%
19-Jun-2024 21:00Overcast Clouds26°C7 mph, NW100%10000m1012hPa31%
20-Jun-2024 00:00Broken Clouds27°C7 mph, NW70%10000m1011hPa28%
20-Jun-2024 03:00Clear Sky22°C4 mph, N1%10000m1011hPa56%
20-Jun-2024 06:00Clear Sky13°C2 mph, N0%10000m1013hPa87%
20-Jun-2024 09:00Clear Sky10°C2 mph, NW10%10000m1013hPa94%
20-Jun-2024 12:00Scattered Clouds9°C2 mph, NW35%10000m1013hPa94%
20-Jun-2024 15:00Overcast Clouds14°C2 mph, NW100%10000m1013hPa71%
20-Jun-2024 18:00Overcast Clouds22°C4 mph, NW100%10000m1012hPa47%
20-Jun-2024 21:00Overcast Clouds28°C7 mph, NW100%10000m1010hPa30%
21-Jun-2024 00:00Overcast Clouds29°C7 mph, NW98%10000m1009hPa27%
21-Jun-2024 03:00Few Clouds23°C7 mph, NW12%10000m1010hPa52%
21-Jun-2024 06:00Clear Sky14°C2 mph, NW6%10000m1012hPa80%
21-Jun-2024 09:00Clear Sky11°C0 mph, E0%10000m1012hPa90%
21-Jun-2024 12:00Clear Sky10°C0 mph, SE10%10000m1013hPa94%
21-Jun-2024 15:00Broken Clouds15°C0 mph, SW76%10000m1013hPa69%
21-Jun-2024 18:00Broken Clouds24°C2 mph, NW76%10000m1012hPa41%
21-Jun-2024 21:00Scattered Clouds28°C4 mph, NW27%10000m1011hPa30%
22-Jun-2024 00:00Broken Clouds27°C9 mph, NW63%10000m1010hPa32%
22-Jun-2024 03:00Overcast Clouds19°C4 mph, NW100%10000m1011hPa56%